Slide Mountain Weather observations

Data are for 10 minute period ending at time listed.
 Day   Time   Solar   Ave.   Ave.  Ave.  Vector  Max.    Baro.  
  of    of     Rad.   Air    Rel.  Wind   Wind   Wind   Press.  
Year   Day            Temp.  Hum.  Speed  Dir.   Gust           
2015   (PST)  Kw/m2    F      %     mph   deg.    mph     mb.   
-----------------------------------------------------------------
  28   12:50   0.48   30.0    73   15.9   107     22.8    716.5 
  28   13:00   0.48   29.9    72   17.3   102     24.5    716.4 
  28   13:10   0.47   29.7    74   15.6   110     23.7    716.4 
  28   13:20   0.47   29.5    77   18.4   112     27.5    716.3 
  28   13:30   0.46   29.9    75   14.8   108     21.5    716.3 
  28   13:40   0.45   29.7    75   14.2   116     20.7    716.3 
  28   13:50   0.43   30.0    74   14.6   102     20.8    716.3 
  28   14:00   0.42   30.4    72   13.0   104     18.5    716.2 
  28   14:10   0.41   30.0    74   12.3   107     17.4    716.2 
  28   14:20   0.39   30.4    74   13.2    80     17.7    716.2 
  28   14:30   0.37   30.2    76   11.3    96     19.7    716.2 
  28   14:40   0.36   30.4    75   11.8    94     16.7    716.2 
  28   14:50   0.34   30.6    75   16.0    94     25.4    716.2 
  28   15:00   0.32   30.2    75   14.8    91     23.0    716.3 
  28   15:10   0.30   29.9    74   19.3    94     28.3    716.2 
  28   15:20   0.28   29.7    75   20.4    95     27.5    716.2 
  28   15:30   0.26   29.5    76   18.8    76     27.4    716.2 
  28   15:40   0.23   29.6    76   18.7    83     24.3    716.2 
  28   15:50   0.21   29.6    75   19.8    80     25.2    716.2 
  28   16:00   0.18   29.0    76   21.1    70     26.5    716.2 
  28   16:10   0.15   28.4    78   21.7    67     25.2    716.2 
  28   16:20   0.13   28.3    78   23.6    70     29.0    716.1 
  28   16:30   0.09   28.0    80   24.9    70     28.4    716.0 
  28   16:40   0.06   27.7    81   25.6    71     29.8    716.0 
  28   16:50   0.03   27.3    83   25.5    66     28.8    716.0 
  28   17:00   0.02   27.1    84   27.4    66     31.9    715.9 
  28   17:10   0.01   26.9    85   27.9    62     31.7    715.9 
  28   17:20   0.00   26.5    86   27.9    61     31.2    715.8 
  28   17:30   0.00   26.2    87   28.8    63     33.2    715.8 
  28   17:40   0.00   25.9    88   29.3    62     34.1    715.7 
  28   17:50   0.00   25.6    91   30.1    62     34.9    715.7 
  28   18:00   0.00   25.4    92   31.9    61     35.5    715.7 
  28   18:10   0.00   25.2    93   31.8    59     35.5    715.7 
  28   18:20   0.00   25.2    90   31.3    61     35.4    715.8 
  28   18:30   0.00   25.2    89   30.5    60     36.7    715.8 
  28   18:40   0.00   25.0    90   32.5    65     37.7    715.8 
  28   18:50   0.00   25.1    89   35.0    66     41.9    715.7 
  28   19:00   0.00   25.4    87   36.7    67     43.7    715.8 
  28   19:10   0.00   25.2    88   34.3    72     41.0    715.9 
  28   19:20   0.00   25.1    89   33.2    79     36.8    716.0 
  28   19:30   0.00   25.6    84   33.5    82     39.2    716.0 
  28   19:40   0.00   25.3    88   31.5    77     35.9    716.1 
  28   19:50   0.00   25.0    87   32.0    75     37.9    716.1 
  28   20:00   0.00   24.9    86   31.5    72     35.4    716.1 
  28   20:10   0.00   24.7    88   30.1    72     34.3    716.1 
  28   20:20   0.00   24.7    89   31.3    75     36.3    716.0 
  28   20:30   0.00   24.5    90   30.6    74     36.4    716.0 
  28   20:40   0.00   24.6    91   31.5    74     36.1    716.0 
  28   20:50   0.00   24.4    91   29.7    71     36.1    716.1 
  28   21:00   0.00   24.3    92   26.6    72     32.2    716.2 
  28   21:10   0.00   24.2    93   23.5    74     30.2    716.2 
  28   21:20   0.00   24.4    92   20.4    73     26.6    716.3 
  28   21:30   0.00   24.4    92   19.2    76     23.1    716.2 
  28   21:40   0.00   24.5    91   18.7    86     23.6    716.2 
  28   21:50   0.00   24.7    90   18.8    88     24.0    716.3 
  28   22:00   0.00   24.6    92   21.6    96     26.7    716.2 
  28   22:10   0.00   24.5    93   16.6    95     26.0    716.3 
  28   22:20   0.00   24.3    96   20.1    97     27.1    716.3 
  28   22:30   0.00   24.1    98   20.1    97     30.2    716.2 
  28   22:40   0.00   24.3    99   22.5   101     30.2    716.2 
  28   22:50   0.00   24.5    98   23.9    99     28.2    716.2 
  28   23:00   0.00   24.7    99   23.9    98     28.0    716.1 
  28   23:10   0.00   24.7    98   25.5    98     28.9    716.1 
  28   23:20   0.00   24.7    98   23.5    96     27.1    716.0 
  28   23:30   0.00   24.6    98   23.4    96     26.6    716.0 
  28   23:40   0.00   24.6    97   17.5    98     22.1    716.1 
  28   23:50   0.00   24.6    98   20.2    98     23.3    716.0 
  29    0:00   0.00   24.6    98   20.3    99     22.9    715.9 
  29    0:10   0.00   24.5    98   17.4   105     20.5    715.9 
  29    0:20   0.00   24.6    98   15.1   105     17.3    715.9 
  29    0:30   0.00   24.6    98   15.0   106     16.9    715.8 
  29    0:40   0.00   24.7    98   16.8   114     19.6    715.8 
  29    0:50   0.00   24.8    98   18.9   115     21.5    715.8 
  29    1:00   0.00   24.8    98   20.7   114     23.2    715.8 
  29    1:10   0.00   24.8    98   18.6   116     20.8    715.8 
  29    1:20   0.00   24.9    98   17.3   119     19.4    715.8 
  29    1:30   0.00   24.9    98   18.3   123     20.9    715.8 
  29    1:40   0.00   25.1    98   18.6   125     21.4    715.8 
  29    1:50   0.00   25.4    98   19.5   125     23.0    715.8 
  29    2:00   0.00   25.4    98   20.4   123     24.0    715.8 
  29    2:10   0.00   25.3    98   18.9   123     24.3    715.8 
  29    2:20   0.00   25.2    98   19.0   124     22.3    715.8 
  29    2:30   0.00   25.4    98   19.9   121     26.0    715.7 
  29    2:40   0.00   25.4    98   17.0   119     19.5    715.7 
  29    2:50   0.00   25.4    98   16.9   116     20.5    715.6 
  29    3:00   0.00   25.4    98   15.9   114     17.8    715.6 
  29    3:10   0.00   25.4    98   16.2   114     19.4    715.5 
  29    3:20   0.00   25.5    98   15.5   116     17.9    715.5 
  29    3:30   0.00   25.6    98   14.8   114     17.1    715.4 
  29    3:40   0.00   25.7    98   13.4   112     15.9    715.3 
  29    3:50   0.00   25.7    98   14.5   112     17.4    715.2 
  29    4:00   0.00   25.8    98   13.7   114     16.0    715.3 
  29    4:10   0.00   25.9    98   14.4   123     17.8    715.2 
  29    4:20   0.00   25.9    98   13.3   124     18.6    715.2 
  29    4:30   0.00   25.8    98   12.5   127     17.8    715.1 
  29    4:40   0.00   25.6    98   11.6   127     13.8    715.0 
  29    4:50   0.00   25.7    98   11.9   126     14.5    715.0 
  29    5:00   0.00   26.0    98   13.3   118     16.2    714.9 
  29    5:10   0.00   26.1    98   13.6   116     16.0    714.9 
  29    5:20   0.00   26.1    98   12.9   111     15.3    714.8 
  29    5:30   0.00   25.8    98   12.0   103     14.7    714.8 
  29    5:40   0.00   26.0    98   10.9   102     12.8    714.8 
  29    5:50   0.00   26.0    98   12.4   100     15.1    714.8 
  29    6:00   0.00   26.0    98   11.7    96     13.9    714.7 
  29    6:10   0.00   26.0    98   13.5    99     16.0    714.7 
  29    6:20   0.00   26.1    98   13.7   100     17.0    714.7 
  29    6:30   0.00   26.2    98   13.1    97     16.5    714.8 
  29    6:40   0.00   26.1    98   13.6    97     17.2    714.8 
  29    6:50   0.00   25.9    98   13.6   106     18.8    714.9 
  29    7:00   0.00   25.9    98   14.3   106     18.5    714.8 
  29    7:10   0.00   25.8    98   13.5   108     16.7    714.8 
  29    7:20   0.01   25.8    98   13.6    97     17.1    714.8 
  29    7:30   0.02   25.9    98   13.3   107     16.2    714.8 
  29    7:40   0.04   26.0    98   13.3   109     16.9    714.9 
  29    7:50   0.05   26.1    98   12.4   109     16.3    714.9 
  29    8:00   0.06   26.0    98   12.2   107     16.3    715.0 
  29    8:10   0.05   26.1    98   10.9   104     14.1    715.0 
  29    8:20   0.06   26.1    98   10.7   114     14.0    715.1 
  29    8:30   0.06   26.2    98   11.3   108     14.7    715.1 
  29    8:40   0.07   26.3    98   11.5   111     15.5    715.1 
  29    8:50   0.07   26.3    98    9.9   124     13.4    715.2 
  29    9:00   0.10   26.4    98   12.0   117     16.1    715.2 
  29    9:10   0.12   26.4    98   12.7   118     16.1    715.2 
  29    9:20   0.14   26.6    98   11.5   112     14.2    715.2 
  29    9:30   0.17   26.8    98   11.6   114     15.5    715.2 
  29    9:40   0.22   26.9    97   13.2   112     16.0    715.2 
  29    9:50   0.21   27.1    97   13.1   113     16.5    715.2 
  29   10:00   0.29   28.1    98   13.1   120     16.7    715.2 
  29   10:10   0.28   28.5    98   11.3   120     16.5    715.3 
  29   10:20   0.28   29.2    97    9.1   124     12.4    715.3 
  29   10:30   0.24   29.4    97    7.8   128     13.2    715.3 
  29   10:40   0.28   28.7    97   10.7   125     15.8    715.3 
  29   10:50   0.31   29.1    97   10.6   123     14.0    715.3 
  29   11:00   0.33   29.6    97    9.3   126     11.7    715.3 
  29   11:10   0.26   29.1    97    8.8   123     11.8    715.2 
  29   11:20   0.28   29.4    97    9.7   124     14.7    715.1 
  29   11:30   0.32   29.5    97    9.4   126     12.6    715.1 
  29   11:40   0.22   29.2    97    7.7   131     10.5    715.0 
  29   11:50   0.18   29.1    96    7.8   140     10.2    714.9 
  29   12:00   0.23   28.7    96    9.0   136     12.7    714.8 
  29   12:10   0.33   29.6    96    8.0   134     10.5    714.7 
  29   12:20   0.38   30.3    95    8.8   141     13.1    714.5 
  29   12:30   0.38   30.5    93    9.0   142     12.2    714.4 
  29   12:40   0.38   30.3    92    8.2   142     12.2    714.3 

Return to Slide Mountain graphs page.


Western Regional Climate Center,wrcc@dri.edu